Current News

By popular demand, I have restored the previous template "type" back to the website. This is a major work in progress... So don't complain when something is broken.

I did put a link to the earlier WeeWX version that presents much more data at the top right corner of the page.
-- Jeffrey

Current Weather Cam

Current Radar Loop

Nearby METAR Reports

 

KSJC - San Jose, California, USA
Distance from station: NE 9mi, 14km
Updated: Tue, 20-Feb-2018 10:53am CST
Partly cloudy
Partly cloudy
 Wind from SSE
Wind: SSE 3 mph , 6 km/h
Temperature: 43°F , 6°C
Dew Point: 30°F , -1°C
Humidity: 61%
Barometer: 30.26 inHg , 1024.7 hPa
Clouds: Partly cloudy
Visibility: 10 miles , 16 km
Cloud details: Few Clouds 2800 ft
Partly cloudy 5000 ft
2018/02/20 16:53 KSJC 201653Z 15003KT 10SM FEW028 SCT050 06/M01 A3026 RMK AO2 SLP245 T00611006
KNUQ - Moffett Nas/Mtn, California, USA
Distance from station: N 9mi, 14km
Updated: Tue, 20-Feb-2018 10:56am CST
Clear
Clear
 Wind from SSE
Wind: SSE 3 mph , 6 km/h
Temperature: 45°F , 7°C
Dew Point: 30°F , -1°C
Humidity: 57%
Barometer: 30.26 inHg , 1024.7 hPa
Clouds: Clear
Visibility: 10 miles , 16 km
2018/02/20 16:56 KNUQ 201656Z 15003KT 10SM CLR 07/M01 A3026 RMK AO2 SLP251 T00671006
 
KPAO - Palo Alto, California, USA
Distance from station: NNW 14mi, 23km
Updated: Tue, 20-Feb-2018 10:47am CST
Clear
Clear
 Wind from calm
Wind: Calm
Clouds: Clear
Visibility: 10 miles , 16 km
2018/02/20 16:47 KPAO 201647Z 00000KT 10SM SKC --/-- A3026
KRHV - San Jose/Reid, California, USA
Distance from station: ENE 12mi, 19km
Updated: Tue, 20-Feb-2018 10:47am CST
Clear
Clear
 Wind from calm
Wind: Calm
Temperature: 41°F , 5°C
Dew Point: 30°F , -1°C
Humidity: 66%
Barometer: 30.24 inHg , 1024 hPa
Clouds: Clear
Visibility: 10 miles , 16 km
2018/02/20 16:47 KRHV 201647Z 00000KT 10SM SKC 05/M01 A3024
 
KOAK - Oakland, California, USA
Distance from station: NNW 31mi, 50km
Updated: Tue, 20-Feb-2018 10:53am CST
Mostly cloudy
Mostly cloudy
 Wind from SSE
Wind: SSE 3 mph , 6 km/h
Temperature: 43°F , 6°C
Dew Point: 32°F , 0°C
Humidity: 66%
Barometer: 30.26 inHg , 1024.7 hPa
Clouds: Mostly cloudy
Visibility: 10 miles , 16 km
Cloud details: Mostly cloudy 14000 ft
2018/02/20 16:53 KOAK 201653Z 16003KT 10SM BKN140 06/00 A3026 RMK AO2 SLP246 T00610000
KSQL - San Carlos Airpo, California, USA
Distance from station: NW 21mi, 34km
Updated: Tue, 20-Feb-2018 10:47am CST
Partly cloudy
Partly cloudy
 Wind from calm
Wind: Calm
Temperature: 41°F , 5°C
Dew Point: 32°F , 0°C
Humidity: 70%
Barometer: 30.26 inHg , 1024.7 hPa
Clouds: Partly cloudy
Visibility: 10 miles , 16 km
Cloud details: Few Clouds 18000 ft
Partly cloudy 20000 ft
2018/02/20 16:47 KSQL 201647Z 00000KT 10SM FEW180 SCT200 05/00 A3026
 
KSFO - San Francisco, California, USA
Distance from station: NW 30mi, 49km
Updated: Tue, 20-Feb-2018 10:56am CST
Mostly cloudy
Mostly cloudy
 Wind from N
Wind: N 8 mph , 13 km/h
Temperature: 46°F , 8°C
Wind Chill: 42°F , 6°C
Dew Point: 32°F , 0°C
Humidity: 57%
Barometer: 30.25 inHg , 1024.4 hPa
Clouds: Mostly cloudy
Visibility: 10 miles , 16 km
Cloud details: Mostly cloudy 20000 ft
2018/02/20 16:56 KSFO 201656Z 01007KT 10SM BKN200 08/00 A3025 RMK AO2 SLP244 T00780000 $
KE16 - San Martin, California, USA
Distance from station: ESE 27mi, 43km
Updated: Tue, 20-Feb-2018 10:55am CST
Clear
Clear
 Wind from calm
Wind: Calm
Temperature: 36°F , 2°C
Dew Point: 28°F , -2°C
Humidity: 75%
Barometer: 30.28 inHg , 1025.4 hPa
Clouds: Clear
Visibility: 10 miles , 16 km
2018/02/20 16:55 KE16 201655Z AUTO 00000KT 10SM CLR 02/M02 A3028 RMK AO2
 
KWVI - Watsonville, California, USA
Distance from station: SSE 27mi, 44km
Updated: Tue, 20-Feb-2018 10:53am CST
Clear
Clear
 Wind from calm
Wind: Calm
Temperature: 39°F , 4°C
Dew Point: 30°F , -1°C
Humidity: 70%
Barometer: 30.26 inHg , 1024.7 hPa
Clouds: Clear
Visibility: 10 miles , 16 km
2018/02/20 16:53 KWVI 201653Z AUTO 00000KT 10SM CLR 04/M01 A3026 RMK AO2 SLP249 T00441006
KHAF - Half Moon Bay, California, USA
Distance from station: WNW 31mi, 50km
Updated: Tue, 20-Feb-2018 10:55am CST
Clear
Clear
 Wind from calm
Wind: Calm
Temperature: 46°F , 8°C
Dew Point: 28°F , -2°C
Humidity: 50%
Barometer: 30.22 inHg , 1023.4 hPa
Clouds: Clear
Visibility: 9 miles , 14 km
2018/02/20 16:55 KHAF 201655Z AUTO 00000KT 9SM CLR 08/M02 A3022 RMK AO2
 
KHWD - Hayward, California, USA
Distance from station: N 28mi, 44km
Updated: Tue, 20-Feb-2018 10:54am CST
Partly cloudy
Partly cloudy
 Wind from calm
Wind: Calm
Temperature: 43°F , 6°C
Dew Point: 27°F , -3°C
Humidity: 53%
Barometer: 30.25 inHg , 1024.4 hPa
Clouds: Partly cloudy
Visibility: 10 miles , 16 km
Cloud details: Partly cloudy 20000 ft
2018/02/20 16:54 KHWD 201654Z 00000KT 10SM SCT200 06/M03 A3025 RMK AO2 SLP255 T00561033
KLVK - Livermore, California, USA
Distance from station: NNE 31mi, 51km
Updated: Tue, 20-Feb-2018 10:53am CST
Clear
Clear
 Wind from calm
Wind: Calm
Temperature: 37°F , 3°C
Dew Point: 25°F , -4°C
Humidity: 60%
Barometer: 30.25 inHg , 1024.4 hPa
Clouds: Clear
Visibility: 10 miles , 16 km
2018/02/20 16:53 KLVK 201653Z 00000KT 10SM CLR 03/M04 A3025 RMK AO2 SLP244 T00281044